sensor_id;sensor_type;location;lat;lon;timestamp;temperature;humidity
9772;DHT22;4925;52.588;13.370;2023-02-15T00:01:07;5.90;99.90
9772;DHT22;4925;52.588;13.370;2023-02-15T00:03:33;6.00;99.90
9772;DHT22;4925;52.588;13.370;2023-02-15T00:05:58;6.00;99.90
9772;DHT22;4925;52.588;13.370;2023-02-15T00:08:24;6.10;99.90
9772;DHT22;4925;52.588;13.370;2023-02-15T00:10:50;6.10;99.90
9772;DHT22;4925;52.588;13.370;2023-02-15T00:13:16;6.20;99.90
9772;DHT22;4925;52.588;13.370;2023-02-15T00:15:41;6.20;99.90
9772;DHT22;4925;52.588;13.370;2023-02-15T00:18:07;6.20;99.90
9772;DHT22;4925;52.588;13.370;2023-02-15T00:20:33;6.20;99.90
9772;DHT22;4925;52.588;13.370;2023-02-15T00:22:58;6.20;99.90
9772;DHT22;4925;52.588;13.370;2023-02-15T00:25:25;6.30;99.90
9772;DHT22;4925;52.588;13.370;2023-02-15T00:27:50;6.20;99.90
9772;DHT22;4925;52.588;13.370;2023-02-15T00:30:16;6.20;99.90
9772;DHT22;4925;52.588;13.370;2023-02-15T00:32:42;6.20;99.90
9772;DHT22;4925;52.588;13.370;2023-02-15T00:35:08;6.30;99.90
9772;DHT22;4925;52.588;13.370;2023-02-15T00:37:34;6.20;99.90
9772;DHT22;4925;52.588;13.370;2023-02-15T00:40:00;6.20;99.90
9772;DHT22;4925;52.588;13.370;2023-02-15T00:42:26;6.20;99.90
9772;DHT22;4925;52.588;13.370;2023-02-15T00:44:52;6.20;99.90
9772;DHT22;4925;52.588;13.370;2023-02-15T00:47:17;6.20;99.90
9772;DHT22;4925;52.588;13.370;2023-02-15T00:49:43;6.10;99.90
9772;DHT22;4925;52.588;13.370;2023-02-15T00:52:09;6.10;99.90
9772;DHT22;4925;52.588;13.370;2023-02-15T00:54:34;6.10;99.90
9772;DHT22;4925;52.588;13.370;2023-02-15T00:57:01;6.10;99.90
9772;DHT22;4925;52.588;13.370;2023-02-15T00:59:26;6.10;99.90
9772;DHT22;4925;52.588;13.370;2023-02-15T01:01:52;6.10;99.90
9772;DHT22;4925;52.588;13.370;2023-02-15T01:04:17;6.10;99.90
9772;DHT22;4925;52.588;13.370;2023-02-15T01:06:43;6.10;99.90
9772;DHT22;4925;52.588;13.370;2023-02-15T01:09:09;6.00;99.90
9772;DHT22;4925;52.588;13.370;2023-02-15T01:11:34;5.90;99.90
9772;DHT22;4925;52.588;13.370;2023-02-15T01:14:00;5.90;99.90
9772;DHT22;4925;52.588;13.370;2023-02-15T01:16:27;5.90;99.90
9772;DHT22;4925;52.588;13.370;2023-02-15T01:18:53;5.90;99.90
9772;DHT22;4925;52.588;13.370;2023-02-15T01:21:24;5.90;99.90
9772;DHT22;4925;52.588;13.370;2023-02-15T01:23:50;5.80;99.90
9772;DHT22;4925;52.588;13.370;2023-02-15T01:26:16;5.80;99.90
9772;DHT22;4925;52.588;13.370;2023-02-15T01:28:42;5.80;99.90
9772;DHT22;4925;52.588;13.370;2023-02-15T01:31:15;5.70;99.90
9772;DHT22;4925;52.588;13.370;2023-02-15T01:33:42;5.70;99.90
9772;DHT22;4925;52.588;13.370;2023-02-15T01:36:08;5.60;99.90
9772;DHT22;4925;52.588;13.370;2023-02-15T01:38:34;5.60;99.90
9772;DHT22;4925;52.588;13.370;2023-02-15T01:41:00;5.60;99.90
9772;DHT22;4925;52.588;13.370;2023-02-15T01:43:47;5.60;99.90
9772;DHT22;4925;52.588;13.370;2023-02-15T01:46:14;5.50;99.90
9772;DHT22;4925;52.588;13.370;2023-02-15T01:48:46;5.50;99.90
9772;DHT22;4925;52.588;13.370;2023-02-15T01:51:15;5.50;99.90
9772;DHT22;4925;52.588;13.370;2023-02-15T01:54:07;5.40;99.90
9772;DHT22;4925;52.588;13.370;2023-02-15T01:56:37;5.40;99.90
9772;DHT22;4925;52.588;13.370;2023-02-15T01:59:08;5.30;99.90
9772;DHT22;4925;52.588;13.370;2023-02-15T02:01:34;5.30;99.90
9772;DHT22;4925;52.588;13.370;2023-02-15T02:04:32;5.30;99.90
9772;DHT22;4925;52.588;13.370;2023-02-15T02:07:00;5.20;99.90
9772;DHT22;4925;52.588;13.370;2023-02-15T02:09:26;5.20;99.90
9772;DHT22;4925;52.588;13.370;2023-02-15T02:11:52;5.20;99.90
9772;DHT22;4925;52.588;13.370;2023-02-15T02:14:20;5.10;99.90
9772;DHT22;4925;52.588;13.370;2023-02-15T02:42:39;4.70;99.90
9772;DHT22;4925;52.588;13.370;2023-02-15T02:47:40;4.70;99.90
9772;DHT22;4925;52.588;13.370;2023-02-15T02:50:14;4.80;99.90
9772;DHT22;4925;52.588;13.370;2023-02-15T02:52:43;4.70;99.90
9772;DHT22;4925;52.588;13.370;2023-02-15T02:55:19;4.70;99.90
9772;DHT22;4925;52.588;13.370;2023-02-15T03:00:28;4.70;99.90
9772;DHT22;4925;52.588;13.370;2023-02-15T03:03:01;4.60;99.90
9772;DHT22;4925;52.588;13.370;2023-02-15T03:05:32;4.60;99.90
9772;DHT22;4925;52.588;13.370;2023-02-15T03:08:00;4.60;99.90
9772;DHT22;4925;52.588;13.370;2023-02-15T03:10:32;4.60;99.90
9772;DHT22;4925;52.588;13.370;2023-02-15T03:12:59;4.60;99.90
9772;DHT22;4925;52.588;13.370;2023-02-15T03:15:29;5.00;99.90
9772;DHT22;4925;52.588;13.370;2023-02-15T03:18:18;4.50;99.90
9772;DHT22;4925;52.588;13.370;2023-02-15T03:20:46;4.50;99.90
9772;DHT22;4925;52.588;13.370;2023-02-15T03:23:23;4.40;99.90
9772;DHT22;4925;52.588;13.370;2023-02-15T03:25:57;4.40;99.90
9772;DHT22;4925;52.588;13.370;2023-02-15T03:28:33;4.40;99.90
9772;DHT22;4925;52.588;13.370;2023-02-15T03:31:04;4.30;99.90
9772;DHT22;4925;52.588;13.370;2023-02-15T03:33:31;4.30;99.90
9772;DHT22;4925;52.588;13.370;2023-02-15T03:36:07;4.30;99.90
9772;DHT22;4925;52.588;13.370;2023-02-15T03:42:28;4.20;99.90
9772;DHT22;4925;52.588;13.370;2023-02-15T03:44:31;4.20;99.90
9772;DHT22;4925;52.588;13.370;2023-02-15T03:47:12;4.10;99.90
9772;DHT22;4925;52.588;13.370;2023-02-15T03:49:52;4.10;99.90
9772;DHT22;4925;52.588;13.370;2023-02-15T03:52:21;4.10;99.90
9772;DHT22;4925;52.588;13.370;2023-02-15T03:54:47;4.00;99.90
9772;DHT22;4925;52.588;13.370;2023-02-15T04:00:23;4.00;99.90
9772;DHT22;4925;52.588;13.370;2023-02-15T04:05:37;3.90;99.90
9772;DHT22;4925;52.588;13.370;2023-02-15T04:08:03;3.90;99.90
9772;DHT22;4925;52.588;13.370;2023-02-15T04:10:29;3.90;99.90
9772;DHT22;4925;52.588;13.370;2023-02-15T04:13:13;3.90;99.90
9772;DHT22;4925;52.588;13.370;2023-02-15T04:15:38;3.80;99.90
9772;DHT22;4925;52.588;13.370;2023-02-15T04:18:22;3.80;99.90
9772;DHT22;4925;52.588;13.370;2023-02-15T04:21:06;3.80;99.90
9772;DHT22;4925;52.588;13.370;2023-02-15T04:23:50;3.80;99.90
9772;DHT22;4925;52.588;13.370;2023-02-15T04:26:35;3.70;99.90
9772;DHT22;4925;52.588;13.370;2023-02-15T04:29:00;3.70;99.90
9772;DHT22;4925;52.588;13.370;2023-02-15T04:31:26;3.70;99.90
9772;DHT22;4925;52.588;13.370;2023-02-15T04:33:52;3.70;99.90
9772;DHT22;4925;52.588;13.370;2023-02-15T04:36:17;3.60;99.90
9772;DHT22;4925;52.588;13.370;2023-02-15T04:38:43;3.60;99.90
9772;DHT22;4925;52.588;13.370;2023-02-15T04:41:09;3.70;99.90
9772;DHT22;4925;52.588;13.370;2023-02-15T04:43:36;3.60;99.90
9772;DHT22;4925;52.588;13.370;2023-02-15T04:46:02;3.50;99.90
9772;DHT22;4925;52.588;13.370;2023-02-15T04:48:28;3.50;99.90
9772;DHT22;4925;52.588;13.370;2023-02-15T04:50:53;3.50;99.90
9772;DHT22;4925;52.588;13.370;2023-02-15T04:53:19;3.50;99.90
9772;DHT22;4925;52.588;13.370;2023-02-15T04:55:45;4.40;99.90
9772;DHT22;4925;52.588;13.370;2023-02-15T04:58:10;3.50;99.90
9772;DHT22;4925;52.588;13.370;2023-02-15T05:00:36;3.50;99.90
9772;DHT22;4925;52.588;13.370;2023-02-15T05:03:02;3.40;99.90
9772;DHT22;4925;52.588;13.370;2023-02-15T05:05:28;3.40;99.90
9772;DHT22;4925;52.588;13.370;2023-02-15T05:07:53;3.70;99.90
9772;DHT22;4925;52.588;13.370;2023-02-15T05:10:19;3.30;99.90
9772;DHT22;4925;52.588;13.370;2023-02-15T05:12:45;3.30;99.90
9772;DHT22;4925;52.588;13.370;2023-02-15T05:15:11;3.20;99.90
9772;DHT22;4925;52.588;13.370;2023-02-15T05:17:37;3.20;99.90
9772;DHT22;4925;52.588;13.370;2023-02-15T05:20:03;3.20;99.90
9772;DHT22;4925;52.588;13.370;2023-02-15T05:22:29;3.20;99.90
9772;DHT22;4925;52.588;13.370;2023-02-15T05:24:55;3.10;99.90
9772;DHT22;4925;52.588;13.370;2023-02-15T05:27:40;3.10;99.90
9772;DHT22;4925;52.588;13.370;2023-02-15T05:30:24;3.10;99.90
9772;DHT22;4925;52.588;13.370;2023-02-15T05:32:50;3.10;99.90
9772;DHT22;4925;52.588;13.370;2023-02-15T05:35:15;3.10;99.90
9772;DHT22;4925;52.588;13.370;2023-02-15T05:37:42;2.90;99.90
9772;DHT22;4925;52.588;13.370;2023-02-15T05:40:08;3.10;99.90
9772;DHT22;4925;52.588;13.370;2023-02-15T05:42:34;3.00;99.90
9772;DHT22;4925;52.588;13.370;2023-02-15T05:44:59;3.00;99.90
9772;DHT22;4925;52.588;13.370;2023-02-15T05:47:25;3.20;99.90
9772;DHT22;4925;52.588;13.370;2023-02-15T05:49:51;2.90;99.90
9772;DHT22;4925;52.588;13.370;2023-02-15T05:52:17;3.00;99.90
9772;DHT22;4925;52.588;13.370;2023-02-15T05:54:42;3.00;99.90
9772;DHT22;4925;52.588;13.370;2023-02-15T05:57:08;3.00;99.90
9772;DHT22;4925;52.588;13.370;2023-02-15T05:59:34;3.00;99.90
9772;DHT22;4925;52.588;13.370;2023-02-15T06:01:59;3.00;99.90
9772;DHT22;4925;52.588;13.370;2023-02-15T06:04:25;3.00;99.90
9772;DHT22;4925;52.588;13.370;2023-02-15T06:06:51;3.00;99.90
9772;DHT22;4925;52.588;13.370;2023-02-15T06:09:16;3.00;99.90
9772;DHT22;4925;52.588;13.370;2023-02-15T06:11:44;3.00;99.90
9772;DHT22;4925;52.588;13.370;2023-02-15T06:14:11;3.00;99.90
9772;DHT22;4925;52.588;13.370;2023-02-15T06:16:37;3.00;99.90
9772;DHT22;4925;52.588;13.370;2023-02-15T06:19:02;3.00;99.90
9772;DHT22;4925;52.588;13.370;2023-02-15T06:21:29;3.10;99.90
9772;DHT22;4925;52.588;13.370;2023-02-15T06:23:56;3.10;99.90
9772;DHT22;4925;52.588;13.370;2023-02-15T06:26:22;3.10;99.90
9772;DHT22;4925;52.588;13.370;2023-02-15T06:28:47;3.10;99.90
9772;DHT22;4925;52.588;13.370;2023-02-15T06:31:13;3.10;99.90
9772;DHT22;4925;52.588;13.370;2023-02-15T06:33:39;3.50;99.90
9772;DHT22;4925;52.588;13.370;2023-02-15T06:36:05;3.10;99.90
9772;DHT22;4925;52.588;13.370;2023-02-15T06:38:30;3.00;99.90
9772;DHT22;4925;52.588;13.370;2023-02-15T06:40:56;2.70;99.90
9772;DHT22;4925;52.588;13.370;2023-02-15T06:43:22;2.50;99.90
9772;DHT22;4925;52.588;13.370;2023-02-15T06:45:48;2.50;99.90
9772;DHT22;4925;52.588;13.370;2023-02-15T06:48:13;2.40;99.90
9772;DHT22;4925;52.588;13.370;2023-02-15T06:50:39;2.60;99.90
9772;DHT22;4925;52.588;13.370;2023-02-15T06:53:05;2.50;99.90
9772;DHT22;4925;52.588;13.370;2023-02-15T06:55:31;2.90;99.90
9772;DHT22;4925;52.588;13.370;2023-02-15T06:57:56;2.40;99.90
9772;DHT22;4925;52.588;13.370;2023-02-15T07:00:22;2.80;99.90
9772;DHT22;4925;52.588;13.370;2023-02-15T07:02:53;2.40;99.90
9772;DHT22;4925;52.588;13.370;2023-02-15T07:05:21;2.50;99.90
9772;DHT22;4925;52.588;13.370;2023-02-15T07:07:47;2.60;99.90
9772;DHT22;4925;52.588;13.370;2023-02-15T07:10:13;2.50;99.90
9772;DHT22;4925;52.588;13.370;2023-02-15T07:12:39;2.30;99.90
9772;DHT22;4925;52.588;13.370;2023-02-15T07:15:16;2.50;99.90
9772;DHT22;4925;52.588;13.370;2023-02-15T07:17:42;2.50;99.90
9772;DHT22;4925;52.588;13.370;2023-02-15T07:20:13;2.50;99.90
9772;DHT22;4925;52.588;13.370;2023-02-15T07:22:39;2.40;99.90
9772;DHT22;4925;52.588;13.370;2023-02-15T07:25:07;2.50;99.90
9772;DHT22;4925;52.588;13.370;2023-02-15T07:27:33;2.80;99.90
9772;DHT22;4925;52.588;13.370;2023-02-15T07:30:00;2.80;99.90
9772;DHT22;4925;52.588;13.370;2023-02-15T07:32:30;2.80;99.90
9772;DHT22;4925;52.588;13.370;2023-02-15T07:34:55;2.80;99.90
9772;DHT22;4925;52.588;13.370;2023-02-15T07:37:21;2.80;99.90
9772;DHT22;4925;52.588;13.370;2023-02-15T07:39:47;2.50;99.90
9772;DHT22;4925;52.588;13.370;2023-02-15T07:42:13;2.70;99.90
9772;DHT22;4925;52.588;13.370;2023-02-15T07:44:38;2.50;99.90
9772;DHT22;4925;52.588;13.370;2023-02-15T07:47:04;2.80;99.90
9772;DHT22;4925;52.588;13.370;2023-02-15T07:49:30;2.50;99.90
9772;DHT22;4925;52.588;13.370;2023-02-15T07:51:56;2.60;99.90
9772;DHT22;4925;52.588;13.370;2023-02-15T07:54:21;2.60;99.90
9772;DHT22;4925;52.588;13.370;2023-02-15T07:56:47;2.70;99.90
9772;DHT22;4925;52.588;13.370;2023-02-15T07:59:13;2.90;99.90
9772;DHT22;4925;52.588;13.370;2023-02-15T08:01:38;2.80;99.90
9772;DHT22;4925;52.588;13.370;2023-02-15T08:04:05;3.00;99.90
9772;DHT22;4925;52.588;13.370;2023-02-15T08:06:34;3.10;99.90
9772;DHT22;4925;52.588;13.370;2023-02-15T08:09:01;3.30;99.90
9772;DHT22;4925;52.588;13.370;2023-02-15T08:11:30;3.30;99.90
9772;DHT22;4925;52.588;13.370;2023-02-15T08:14:07;3.50;99.90
9772;DHT22;4925;52.588;13.370;2023-02-15T08:16:46;3.50;99.90
9772;DHT22;4925;52.588;13.370;2023-02-15T08:19:16;3.40;99.90
9772;DHT22;4925;52.588;13.370;2023-02-15T08:21:44;3.40;99.90
9772;DHT22;4925;52.588;13.370;2023-02-15T08:24:12;3.40;99.90
9772;DHT22;4925;52.588;13.370;2023-02-15T08:26:39;3.50;99.90
9772;DHT22;4925;52.588;13.370;2023-02-15T08:29:06;3.70;99.90
9772;DHT22;4925;52.588;13.370;2023-02-15T08:31:33;3.40;99.90
9772;DHT22;4925;52.588;13.370;2023-02-15T08:33:59;3.50;99.90
9772;DHT22;4925;52.588;13.370;2023-02-15T08:36:29;3.70;99.90
9772;DHT22;4925;52.588;13.370;2023-02-15T08:39:01;3.60;99.90
9772;DHT22;4925;52.588;13.370;2023-02-15T08:41:30;3.80;99.90
9772;DHT22;4925;52.588;13.370;2023-02-15T08:43:58;4.00;99.90
9772;DHT22;4925;52.588;13.370;2023-02-15T08:46:28;3.90;99.90
9772;DHT22;4925;52.588;13.370;2023-02-15T08:48:55;4.30;99.90
9772;DHT22;4925;52.588;13.370;2023-02-15T08:51:40;3.90;99.90
9772;DHT22;4925;52.588;13.370;2023-02-15T08:54:08;3.90;99.90
9772;DHT22;4925;52.588;13.370;2023-02-15T08:56:36;4.00;99.90
9772;DHT22;4925;52.588;13.370;2023-02-15T08:59:03;4.10;99.90
9772;DHT22;4925;52.588;13.370;2023-02-15T09:01:31;4.10;99.90
9772;DHT22;4925;52.588;13.370;2023-02-15T09:03:59;4.10;99.90
9772;DHT22;4925;52.588;13.370;2023-02-15T09:06:27;4.20;99.90
9772;DHT22;4925;52.588;13.370;2023-02-15T09:08:53;4.30;99.90
9772;DHT22;4925;52.588;13.370;2023-02-15T09:11:29;4.40;99.90
9772;DHT22;4925;52.588;13.370;2023-02-15T09:14:20;4.00;99.90
9772;DHT22;4925;52.588;13.370;2023-02-15T09:16:46;4.10;99.90
9772;DHT22;4925;52.588;13.370;2023-02-15T09:19:15;4.10;99.90
9772;DHT22;4925;52.588;13.370;2023-02-15T09:21:41;3.90;99.90
9772;DHT22;4925;52.588;13.370;2023-02-15T09:24:09;3.80;99.90
9772;DHT22;4925;52.588;13.370;2023-02-15T09:26:38;3.80;99.90
9772;DHT22;4925;52.588;13.370;2023-02-15T09:29:06;3.80;99.90
9772;DHT22;4925;52.588;13.370;2023-02-15T09:31:43;4.00;99.90
9772;DHT22;4925;52.588;13.370;2023-02-15T09:34:10;4.40;99.90
9772;DHT22;4925;52.588;13.370;2023-02-15T09:36:38;4.70;99.90
9772;DHT22;4925;52.588;13.370;2023-02-15T09:39:24;5.10;99.90
9772;DHT22;4925;52.588;13.370;2023-02-15T09:50:08;5.50;1.00
9772;DHT22;4925;52.588;13.370;2023-02-15T09:56:02;5.40;1.00
9772;DHT22;4925;52.588;13.370;2023-02-15T10:04:12;4.90;1.00
9772;DHT22;4925;52.588;13.370;2023-02-15T10:12:28;4.90;5.20
9772;DHT22;4925;52.588;13.370;2023-02-15T10:26:22;5.10;1.00
9772;DHT22;4925;52.588;13.370;2023-02-15T10:29:10;5.10;1.00
9772;DHT22;4925;52.588;13.370;2023-02-15T10:32:15;5.40;1.00
9772;DHT22;4925;52.588;13.370;2023-02-15T10:35:15;5.80;1.00
9772;DHT22;4925;52.588;13.370;2023-02-15T10:37:57;5.60;1.00
9772;DHT22;4925;52.588;13.370;2023-02-15T10:53:57;6.00;1.00
9772;DHT22;4925;52.588;13.370;2023-02-15T11:02:04;6.10;1.00
9772;DHT22;4925;52.588;13.370;2023-02-15T11:04:51;6.30;1.00
9772;DHT22;4925;52.588;13.370;2023-02-15T11:07:39;6.30;1.00
9772;DHT22;4925;52.588;13.370;2023-02-15T11:12:57;6.40;1.00
9772;DHT22;4925;52.588;13.370;2023-02-15T11:15:34;6.60;1.00
9772;DHT22;4925;52.588;13.370;2023-02-15T11:20:37;6.70;1.00
9772;DHT22;4925;52.588;13.370;2023-02-15T11:23:13;6.50;1.00
9772;DHT22;4925;52.588;13.370;2023-02-15T11:25:44;6.90;1.00
9772;DHT22;4925;52.588;13.370;2023-02-15T11:28:19;7.60;1.00
9772;DHT22;4925;52.588;13.370;2023-02-15T11:30:53;7.00;99.90
9772;DHT22;4925;52.588;13.370;2023-02-15T11:33:31;7.10;99.90
9772;DHT22;4925;52.588;13.370;2023-02-15T11:36:03;7.10;99.90
9772;DHT22;4925;52.588;13.370;2023-02-15T11:38:34;7.40;99.90
9772;DHT22;4925;52.588;13.370;2023-02-15T11:41:14;7.40;37.70
9772;DHT22;4925;52.588;13.370;2023-02-15T11:43:54;7.60;1.00
9772;DHT22;4925;52.588;13.370;2023-02-15T11:46:22;7.80;1.00
9772;DHT22;4925;52.588;13.370;2023-02-15T11:48:48;7.90;1.00
9772;DHT22;4925;52.588;13.370;2023-02-15T11:51:17;7.80;1.00
9772;DHT22;4925;52.588;13.370;2023-02-15T11:53:45;8.00;99.90
9772;DHT22;4925;52.588;13.370;2023-02-15T11:56:19;8.40;99.90
9772;DHT22;4925;52.588;13.370;2023-02-15T11:59:01;8.60;33.50
9772;DHT22;4925;52.588;13.370;2023-02-15T12:04:02;8.60;99.90
9772;DHT22;4925;52.588;13.370;2023-02-15T12:06:33;8.90;1.00
9772;DHT22;4925;52.588;13.370;2023-02-15T12:11:40;9.40;99.90
9772;DHT22;4925;52.588;13.370;2023-02-15T12:14:08;9.60;1.00
9772;DHT22;4925;52.588;13.370;2023-02-15T12:21:53;10.10;99.90
9772;DHT22;4925;52.588;13.370;2023-02-15T12:24:20;10.40;1.00
9772;DHT22;4925;52.588;13.370;2023-02-15T12:26:57;10.40;1.00
9772;DHT22;4925;52.588;13.370;2023-02-15T12:29:27;10.50;99.90
9772;DHT22;4925;52.588;13.370;2023-02-15T12:31:55;10.20;99.90
9772;DHT22;4925;52.588;13.370;2023-02-15T12:34:32;10.30;1.00
9772;DHT22;4925;52.588;13.370;2023-02-15T12:37:02;10.40;99.90
9772;DHT22;4925;52.588;13.370;2023-02-15T12:39:33;10.60;99.90
9772;DHT22;4925;52.588;13.370;2023-02-15T12:42:08;10.90;1.00
9772;DHT22;4925;52.588;13.370;2023-02-15T12:45:34;11.20;1.00
9772;DHT22;4925;52.588;13.370;2023-02-15T12:47:41;11.70;99.90
9772;DHT22;4925;52.588;13.370;2023-02-15T12:50:23;11.70;99.90
9772;DHT22;4925;52.588;13.370;2023-02-15T12:52:50;11.80;1.00
9772;DHT22;4925;52.588;13.370;2023-02-15T12:55:21;11.90;1.00
9772;DHT22;4925;52.588;13.370;2023-02-15T12:57:47;12.20;1.00
9772;DHT22;4925;52.588;13.370;2023-02-15T13:02:55;12.40;99.90
9772;DHT22;4925;52.588;13.370;2023-02-15T13:05:28;12.60;99.90
9772;DHT22;4925;52.588;13.370;2023-02-15T13:08:02;12.60;99.90
9772;DHT22;4925;52.588;13.370;2023-02-15T13:10:56;12.60;99.90
9772;DHT22;4925;52.588;13.370;2023-02-15T13:13:46;12.70;64.70
9772;DHT22;4925;52.588;13.370;2023-02-15T13:16:14;13.30;30.30
9772;DHT22;4925;52.588;13.370;2023-02-15T13:18:45;13.30;1.00
9772;DHT22;4925;52.588;13.370;2023-02-15T13:21:20;13.60;1.00
9772;DHT22;4925;52.588;13.370;2023-02-15T13:24:06;13.60;1.00
9772;DHT22;4925;52.588;13.370;2023-02-15T13:26:34;13.20;1.00
9772;DHT22;4925;52.588;13.370;2023-02-15T13:29:21;13.30;1.00
9772;DHT22;4925;52.588;13.370;2023-02-15T13:31:49;13.50;1.00
9772;DHT22;4925;52.588;13.370;2023-02-15T13:34:44;14.00;1.00
9772;DHT22;4925;52.588;13.370;2023-02-15T13:39:57;14.10;1.00
9772;DHT22;4925;52.588;13.370;2023-02-15T13:56:06;13.90;1.00
9772;DHT22;4925;52.588;13.370;2023-02-15T14:03:56;13.90;1.00
9772;DHT22;4925;52.588;13.370;2023-02-15T14:12:01;13.90;1.00
9772;DHT22;4925;52.588;13.370;2023-02-15T14:19:57;12.60;26.20
9772;DHT22;4925;52.588;13.370;2023-02-15T14:22:49;12.40;99.90
9772;DHT22;4925;52.588;13.370;2023-02-15T14:28:05;12.60;99.90
9772;DHT22;4925;52.588;13.370;2023-02-15T14:30:38;12.50;99.90
9772;DHT22;4925;52.588;13.370;2023-02-15T14:33:08;12.50;99.90
9772;DHT22;4925;52.588;13.370;2023-02-15T14:35:34;12.80;99.90
9772;DHT22;4925;52.588;13.370;2023-02-15T14:49:21;14.00;1.00
9772;DHT22;4925;52.588;13.370;2023-02-15T14:56:46;14.70;1.00
9772;DHT22;4925;52.588;13.370;2023-02-15T14:59:18;14.60;1.00
9772;DHT22;4925;52.588;13.370;2023-02-15T15:04:43;14.70;1.00
9772;DHT22;4925;52.588;13.370;2023-02-15T15:07:16;14.50;1.00
9772;DHT22;4925;52.588;13.370;2023-02-15T15:09:46;14.40;1.00
9772;DHT22;4925;52.588;13.370;2023-02-15T15:14:55;14.80;1.00
9772;DHT22;4925;52.588;13.370;2023-02-15T15:22:42;14.20;1.00
9772;DHT22;4925;52.588;13.370;2023-02-15T15:27:55;14.50;99.90
9772;DHT22;4925;52.588;13.370;2023-02-15T15:32:59;14.70;1.00
9772;DHT22;4925;52.588;13.370;2023-02-15T15:41:32;14.60;1.00
9772;DHT22;4925;52.588;13.370;2023-02-15T15:49:35;13.80;13.70
9772;DHT22;4925;52.588;13.370;2023-02-15T15:52:07;13.80;99.90
9772;DHT22;4925;52.588;13.370;2023-02-15T15:54:34;13.70;99.90
9772;DHT22;4925;52.588;13.370;2023-02-15T15:57:04;13.70;99.90
9772;DHT22;4925;52.588;13.370;2023-02-15T15:59:33;13.70;99.90
9772;DHT22;4925;52.588;13.370;2023-02-15T16:02:15;13.60;1.00
9772;DHT22;4925;52.588;13.370;2023-02-15T16:04:42;13.50;99.90
9772;DHT22;4925;52.588;13.370;2023-02-15T16:10:00;13.30;1.00
9772;DHT22;4925;52.588;13.370;2023-02-15T16:12:29;13.20;1.00
9772;DHT22;4925;52.588;13.370;2023-02-15T16:14:56;13.10;1.00
9772;DHT22;4925;52.588;13.370;2023-02-15T16:17:27;13.00;1.00
9772;DHT22;4925;52.588;13.370;2023-02-15T16:20:34;12.90;1.00
9772;DHT22;4925;52.588;13.370;2023-02-15T16:23:30;12.80;1.00
9772;DHT22;4925;52.588;13.370;2023-02-15T16:28:58;12.50;99.90
9772;DHT22;4925;52.588;13.370;2023-02-15T16:31:24;12.40;99.90
9772;DHT22;4925;52.588;13.370;2023-02-15T16:33:53;12.30;99.90
9772;DHT22;4925;52.588;13.370;2023-02-15T16:36:25;12.20;1.00
9772;DHT22;4925;52.588;13.370;2023-02-15T16:41:28;12.00;1.00
9772;DHT22;4925;52.588;13.370;2023-02-15T16:43:57;11.90;11.10
9772;DHT22;4925;52.588;13.370;2023-02-15T16:46:32;11.80;99.90
9772;DHT22;4925;52.588;13.370;2023-02-15T16:49:01;11.70;1.00
9772;DHT22;4925;52.588;13.370;2023-02-15T16:51:29;11.60;1.00
9772;DHT22;4925;52.588;13.370;2023-02-15T16:53:59;11.40;1.00
9772;DHT22;4925;52.588;13.370;2023-02-15T16:56:30;11.30;38.40
9772;DHT22;4925;52.588;13.370;2023-02-15T16:58:57;11.20;99.90
9772;DHT22;4925;52.588;13.370;2023-02-15T17:01:30;11.10;1.00
9772;DHT22;4925;52.588;13.370;2023-02-15T17:04:24;11.00;1.00
9772;DHT22;4925;52.588;13.370;2023-02-15T17:07:05;10.90;27.70
9772;DHT22;4925;52.588;13.370;2023-02-15T17:09:31;10.80;99.90
9772;DHT22;4925;52.588;13.370;2023-02-15T17:11:57;10.70;1.00
9772;DHT22;4925;52.588;13.370;2023-02-15T17:14:31;10.60;1.00
9772;DHT22;4925;52.588;13.370;2023-02-15T17:17:08;10.50;99.90
9772;DHT22;4925;52.588;13.370;2023-02-15T17:19:48;10.50;1.00
9772;DHT22;4925;52.588;13.370;2023-02-15T17:22:24;10.40;1.00
9772;DHT22;4925;52.588;13.370;2023-02-15T17:25:00;10.30;99.90
9772;DHT22;4925;52.588;13.370;2023-02-15T17:27:29;10.20;1.50
9772;DHT22;4925;52.588;13.370;2023-02-15T17:30:00;10.10;99.90
9772;DHT22;4925;52.588;13.370;2023-02-15T17:32:29;10.00;1.00
9772;DHT22;4925;52.588;13.370;2023-02-15T17:35:18;9.80;55.60
9772;DHT22;4925;52.588;13.370;2023-02-15T17:37:48;9.70;99.90
9772;DHT22;4925;52.588;13.370;2023-02-15T17:40:22;9.60;99.90
9772;DHT22;4925;52.588;13.370;2023-02-15T17:42:48;9.60;99.90
9772;DHT22;4925;52.588;13.370;2023-02-15T17:45:14;9.50;1.00
9772;DHT22;4925;52.588;13.370;2023-02-15T17:47:40;9.30;1.00
9772;DHT22;4925;52.588;13.370;2023-02-15T17:50:07;9.30;1.00
9772;DHT22;4925;52.588;13.370;2023-02-15T17:52:33;9.30;1.00
9772;DHT22;4925;52.588;13.370;2023-02-15T17:55:08;9.20;1.00
9772;DHT22;4925;52.588;13.370;2023-02-15T17:57:56;9.10;1.00
9772;DHT22;4925;52.588;13.370;2023-02-15T18:00:22;9.10;99.90
9772;DHT22;4925;52.588;13.370;2023-02-15T18:03:10;9.00;99.90
9772;DHT22;4925;52.588;13.370;2023-02-15T18:05:55;8.90;99.90
9772;DHT22;4925;52.588;13.370;2023-02-15T18:08:39;8.90;99.90
9772;DHT22;4925;52.588;13.370;2023-02-15T18:11:23;8.80;99.90
9772;DHT22;4925;52.588;13.370;2023-02-15T18:14:08;8.70;99.90
9772;DHT22;4925;52.588;13.370;2023-02-15T18:16:37;8.70;99.90
9772;DHT22;4925;52.588;13.370;2023-02-15T18:19:06;8.70;99.90
9772;DHT22;4925;52.588;13.370;2023-02-15T18:21:34;8.70;99.90
9772;DHT22;4925;52.588;13.370;2023-02-15T18:24:00;8.50;99.90
9772;DHT22;4925;52.588;13.370;2023-02-15T18:26:26;8.50;99.90
9772;DHT22;4925;52.588;13.370;2023-02-15T18:28:53;8.40;99.90
9772;DHT22;4925;52.588;13.370;2023-02-15T18:31:19;8.30;99.90
9772;DHT22;4925;52.588;13.370;2023-02-15T18:33:57;8.30;99.90
9772;DHT22;4925;52.588;13.370;2023-02-15T18:36:32;8.30;99.90
9772;DHT22;4925;52.588;13.370;2023-02-15T18:39:00;8.20;99.90
9772;DHT22;4925;52.588;13.370;2023-02-15T18:41:28;8.20;99.90
9772;DHT22;4925;52.588;13.370;2023-02-15T18:43:54;8.20;99.90
9772;DHT22;4925;52.588;13.370;2023-02-15T18:46:20;8.10;99.90
9772;DHT22;4925;52.588;13.370;2023-02-15T18:48:46;8.10;99.90
9772;DHT22;4925;52.588;13.370;2023-02-15T18:51:21;8.10;99.90
9772;DHT22;4925;52.588;13.370;2023-02-15T18:53:50;8.00;99.90
9772;DHT22;4925;52.588;13.370;2023-02-15T18:56:18;8.00;99.90
9772;DHT22;4925;52.588;13.370;2023-02-15T18:58:45;8.00;99.90
9772;DHT22;4925;52.588;13.370;2023-02-15T19:01:17;7.90;99.90
9772;DHT22;4925;52.588;13.370;2023-02-15T19:03:48;7.80;99.90
9772;DHT22;4925;52.588;13.370;2023-02-15T19:06:17;7.70;99.90
9772;DHT22;4925;52.588;13.370;2023-02-15T19:08:45;7.70;99.90
9772;DHT22;4925;52.588;13.370;2023-02-15T19:11:20;7.70;1.00
9772;DHT22;4925;52.588;13.370;2023-02-15T19:13:48;7.70;1.00
9772;DHT22;4925;52.588;13.370;2023-02-15T19:18:54;7.60;1.00
9772;DHT22;4925;52.588;13.370;2023-02-15T19:21:20;7.50;99.90
9772;DHT22;4925;52.588;13.370;2023-02-15T19:23:50;7.50;1.00
9772;DHT22;4925;52.588;13.370;2023-02-15T19:26:18;7.50;1.00
9772;DHT22;4925;52.588;13.370;2023-02-15T19:28:44;7.40;99.90
9772;DHT22;4925;52.588;13.370;2023-02-15T19:31:13;7.40;99.90
9772;DHT22;4925;52.588;13.370;2023-02-15T19:33:38;7.40;99.90
9772;DHT22;4925;52.588;13.370;2023-02-15T19:36:08;7.30;99.90
9772;DHT22;4925;52.588;13.370;2023-02-15T19:38:38;7.30;99.90
9772;DHT22;4925;52.588;13.370;2023-02-15T19:41:07;7.30;99.90
9772;DHT22;4925;52.588;13.370;2023-02-15T19:43:33;7.20;99.90
9772;DHT22;4925;52.588;13.370;2023-02-15T19:45:59;7.20;99.90